Porthleven, United Kingdom
Current Conditions -  °F | °C
As of 6:50 PM on Thursday 27 Nov 2014 (Local Time) from EGDR Reporting Station
Few Clouds Few Clouds  
Wind Chill: 50°   Ceiling: Unl
Heat Index: 50°   Visibility: 6mi
Dew Point: 46°   Wind: 18mph
Humidity: 87%   Direction: 100°E
Pressure: 29.35"   Gusts: NA
Location:  50.09°N, 5.32°W
Report Text: EGDR 271850Z 10016KT 9999 FEW014 10/08 Q0994 BLU TEMPO SCT012 GRN
Loading
Personal Weather Stations






























Interactive Weather Map New forecast layout! Learn more

10-Day Weather Forecast

Advertisements
Track Severe Weather on mobile